createdAt,value
2023-03-23T15:57:56.270Z,81.40
2023-03-23T16:00:27.641Z,81.41
2023-03-23T16:02:59.962Z,81.72
2023-03-23T16:05:29.120Z,82.26
2023-03-23T16:07:58.979Z,82.38
2023-03-23T16:10:29.914Z,82.44
2023-03-23T16:12:58.441Z,82.59
2023-03-23T16:15:26.975Z,82.71
2023-03-23T16:17:55.833Z,82.91
2023-03-23T16:20:25.271Z,83.27
2023-03-23T16:22:54.246Z,83.24
2023-03-23T16:25:24.067Z,83.63
2023-03-23T16:27:54.396Z,83.75
2023-03-23T16:30:26.165Z,83.84
2023-03-23T16:32:56.884Z,83.91
2023-03-23T16:35:26.692Z,84.18
2023-03-23T16:38:08.346Z,84.36
2023-03-23T16:40:38.797Z,84.63
2023-03-23T16:43:08.603Z,84.98
2023-03-23T16:45:39.379Z,85.32
2023-03-23T16:48:10.609Z,85.48
2023-03-23T16:50:40.036Z,85.66
2023-03-23T16:53:10.165Z,85.89
2023-03-23T16:55:41.184Z,85.97
2023-03-23T16:58:16.935Z,86.13
2023-03-23T17:00:48.944Z,86.29
2023-03-23T17:03:18.475Z,86.45
2023-03-23T17:05:48.379Z,86.57
2023-03-23T17:08:16.952Z,86.86
2023-03-23T17:10:46.925Z,87.02
2023-03-23T17:13:15.739Z,87.19
2023-03-23T17:15:47.132Z,87.39
2023-03-23T17:18:16.945Z,87.57
2023-03-23T17:20:45.788Z,87.51
2023-03-23T17:23:14.726Z,87.69
2023-03-23T17:25:47.292Z,87.57
2023-03-23T17:28:16.597Z,87.65
2023-03-23T17:30:46.770Z,87.70
2023-03-23T17:33:15.330Z,87.85
2023-03-23T17:35:46.910Z,87.75
2023-03-23T17:38:15.865Z,87.88
2023-03-23T17:40:45.742Z,87.77
2023-03-23T17:43:14.166Z,88.03
2023-03-23T17:45:45.072Z,88.02
2023-03-23T17:48:15.041Z,87.97
2023-03-23T17:50:43.639Z,88.03
2023-03-23T17:53:12.227Z,88.03
2023-03-23T17:55:43.135Z,88.17
2023-03-23T17:58:13.105Z,88.23
2023-03-23T18:00:41.610Z,88.26
2023-03-23T18:03:10.145Z,88.58
2023-03-23T18:05:39.559Z,88.74
2023-03-23T18:08:08.467Z,88.96
2023-03-23T18:10:39.014Z,89.01
2023-03-23T18:13:09.038Z,89.05
2023-03-23T18:15:38.647Z,89.25
2023-03-23T18:18:07.711Z,89.37
2023-03-23T18:20:36.193Z,89.58
2023-03-23T18:23:04.648Z,89.74
2023-03-23T18:25:33.123Z,89.94
2023-03-23T18:28:04.624Z,90.21
2023-03-23T18:30:36.062Z,90.23
2023-03-23T18:33:06.027Z,90.36
2023-03-23T18:35:34.272Z,90.52
2023-03-23T18:38:02.623Z,90.62
2023-03-23T18:40:31.273Z,90.69
2023-03-23T18:43:00.521Z,90.99
2023-03-23T18:45:29.145Z,90.92
2023-03-23T18:47:57.696Z,91.02
2023-03-23T18:50:27.299Z,91.05
2023-03-23T18:52:55.766Z,91.04
2023-03-23T18:55:24.913Z,91.29
2023-03-23T18:57:53.425Z,91.43
2023-03-23T19:00:23.197Z,91.52
2023-03-23T19:02:52.272Z,91.52
2023-03-23T19:05:22.194Z,91.73
2023-03-23T19:07:53.638Z,91.74
2023-03-23T19:10:22.212Z,91.95
2023-03-23T19:12:51.196Z,91.95
2023-03-23T19:15:20.113Z,91.95
2023-03-23T19:17:48.478Z,91.96
2023-03-23T19:20:30.238Z,91.88
2023-03-23T19:23:07.161Z,92.02
2023-03-23T19:25:35.684Z,92.10
2023-03-23T19:30:35.633Z,92.07
2023-03-23T19:33:04.273Z,92.40
2023-03-23T19:35:32.988Z,92.51
2023-03-23T19:38:01.529Z,92.42
2023-03-23T19:40:40.526Z,92.57
2023-03-23T19:43:10.804Z,92.43
2023-03-23T19:45:41.801Z,92.68
2023-03-23T19:48:10.499Z,92.67
2023-03-23T19:50:40.678Z,92.74
2023-03-23T19:53:10.063Z,92.59
2023-03-23T19:55:39.723Z,92.78
2023-03-23T19:58:09.473Z,92.50
2023-03-23T20:00:39.094Z,92.41
2023-03-23T20:03:07.575Z,92.04
2023-03-23T20:05:36.933Z,92.14
2023-03-23T20:08:05.683Z,91.94
2023-03-23T20:10:35.502Z,91.75
2023-03-23T20:13:06.346Z,91.46
2023-03-23T20:15:35.446Z,91.27
2023-03-23T20:18:04.962Z,91.47
2023-03-23T20:20:36.596Z,91.50
2023-03-23T20:23:07.811Z,91.55
2023-03-23T20:25:36.981Z,91.47
2023-03-23T20:28:06.995Z,91.24
2023-03-23T20:30:35.759Z,91.24
2023-03-23T20:33:04.624Z,91.06
2023-03-23T20:35:33.124Z,91.17
2023-03-23T20:38:01.630Z,91.19
2023-03-23T20:40:30.439Z,91.03
2023-03-23T20:43:00.524Z,91.04
2023-03-23T20:45:30.153Z,90.68
2023-03-23T20:48:02.037Z,90.80
2023-03-23T20:50:30.625Z,90.78
2023-03-23T20:52:59.080Z,90.57
2023-03-23T20:55:27.730Z,90.38
2023-03-23T20:57:57.003Z,90.13
2023-03-23T21:00:25.645Z,90.15
2023-03-23T21:02:55.825Z,89.77
2023-03-23T21:05:24.754Z,89.54
2023-03-23T21:07:54.257Z,89.49
2023-03-23T21:10:25.634Z,89.46
2023-03-23T21:12:54.429Z,89.12
2023-03-23T21:15:23.022Z,89.13
2023-03-23T21:17:51.478Z,89.00
2023-03-23T21:20:21.210Z,88.90
2023-03-23T21:22:49.786Z,88.87
2023-03-23T21:25:22.123Z,88.59
2023-03-23T21:28:03.815Z,88.62
2023-03-23T21:30:32.452Z,88.22
2023-03-23T21:33:01.112Z,88.16
2023-03-23T21:35:30.842Z,88.23
2023-03-23T21:37:59.450Z,88.24
2023-03-23T21:40:27.967Z,88.15
2023-03-23T21:42:56.491Z,87.61
2023-03-23T21:45:25.636Z,87.80
2023-03-23T21:47:56.920Z,87.51
2023-03-23T21:50:26.121Z,87.26
2023-03-23T21:52:55.654Z,86.67
2023-03-23T21:55:25.222Z,86.52
2023-03-23T21:57:53.720Z,86.47
2023-03-23T22:00:23.075Z,86.36
2023-03-23T22:02:53.140Z,86.33
2023-03-23T22:05:21.999Z,86.20
2023-03-23T22:07:50.736Z,86.53
2023-03-23T22:10:20.911Z,86.20
2023-03-23T22:12:53.059Z,86.14
2023-03-23T22:15:27.978Z,85.96
2023-03-23T22:17:57.119Z,85.97
2023-03-23T22:20:26.628Z,86.06
2023-03-23T22:22:55.421Z,85.87
2023-03-23T22:25:25.269Z,85.86
2023-03-23T22:27:55.329Z,85.98
2023-03-23T22:30:24.490Z,86.22
2023-03-23T22:32:53.184Z,85.92
2023-03-23T22:35:21.892Z,86.10
2023-03-23T22:37:51.139Z,86.04
2023-03-23T22:40:23.824Z,86.29
2023-03-23T22:42:53.673Z,86.07
2023-03-23T22:45:23.449Z,86.19
2023-03-23T22:47:52.395Z,85.83
2023-03-23T22:50:24.011Z,86.08
2023-03-23T22:52:52.767Z,86.11
2023-03-23T22:55:21.860Z,86.48
2023-03-23T22:57:50.605Z,86.59
2023-03-23T23:00:20.742Z,86.75
2023-03-23T23:02:49.437Z,86.59
2023-03-23T23:05:18.228Z,86.73
2023-03-23T23:07:46.905Z,86.77
2023-03-23T23:10:15.584Z,86.75
2023-03-23T23:12:45.586Z,86.28
2023-03-23T23:15:15.878Z,86.12
2023-03-23T23:17:45.702Z,85.80
2023-03-23T23:20:15.169Z,85.65
2023-03-23T23:22:44.905Z,85.76
2023-03-23T23:25:13.898Z,85.78
2023-03-23T23:27:42.378Z,85.77
2023-03-23T23:30:12.718Z,85.75
2023-03-23T23:32:42.775Z,86.22
2023-03-23T23:35:14.054Z,86.33
2023-03-23T23:37:42.594Z,86.62
2023-03-23T23:40:14.751Z,86.80
2023-03-23T23:42:44.074Z,87.03
2023-03-23T23:45:13.280Z,87.47
2023-03-23T23:47:42.190Z,87.76
2023-03-23T23:50:14.841Z,87.97
2023-03-23T23:52:44.719Z,88.19
2023-03-23T23:55:16.628Z,88.34
2023-03-23T23:57:46.382Z,88.54
